sensor_id;sensor_type;location;lat;lon;timestamp;P1;durP1;ratioP1;P2;durP2;ratioP2
26319;SDS011;14024;52.226;5.200;2023-07-02T00:00:38;14.05;;;6.07;;
26319;SDS011;14024;52.226;5.200;2023-07-02T00:03:04;13.25;;;5.80;;
26319;SDS011;14024;52.226;5.200;2023-07-02T00:05:30;17.02;;;6.38;;
26319;SDS011;14024;52.226;5.200;2023-07-02T00:07:56;18.55;;;6.32;;
26319;SDS011;14024;52.226;5.200;2023-07-02T00:10:22;16.63;;;6.75;;
26319;SDS011;14024;52.226;5.200;2023-07-02T00:12:48;18.90;;;6.53;;
26319;SDS011;14024;52.226;5.200;2023-07-02T00:15:14;25.13;;;6.55;;
26319;SDS011;14024;52.226;5.200;2023-07-02T00:17:40;19.67;;;6.50;;
26319;SDS011;14024;52.226;5.200;2023-07-02T00:20:07;21.35;;;6.97;;
26319;SDS011;14024;52.226;5.200;2023-07-02T00:22:39;25.40;;;7.28;;
26319;SDS011;14024;52.226;5.200;2023-07-02T00:25:10;23.10;;;7.22;;
26319;SDS011;14024;52.226;5.200;2023-07-02T00:27:36;15.98;;;6.90;;
26319;SDS011;14024;52.226;5.200;2023-07-02T00:30:03;20.17;;;7.07;;
26319;SDS011;14024;52.226;5.200;2023-07-02T00:32:29;29.50;;;8.52;;
26319;SDS011;14024;52.226;5.200;2023-07-02T00:34:57;20.88;;;7.80;;
26319;SDS011;14024;52.226;5.200;2023-07-02T00:37:24;18.10;;;7.85;;
26319;SDS011;14024;52.226;5.200;2023-07-02T00:39:50;23.05;;;8.05;;
26319;SDS011;14024;52.226;5.200;2023-07-02T00:42:17;16.10;;;6.55;;
26319;SDS011;14024;52.226;5.200;2023-07-02T00:44:43;23.65;;;7.47;;
26319;SDS011;14024;52.226;5.200;2023-07-02T00:47:09;24.48;;;8.43;;
26319;SDS011;14024;52.226;5.200;2023-07-02T00:49:36;25.95;;;8.77;;
26319;SDS011;14024;52.226;5.200;2023-07-02T00:52:04;22.42;;;8.40;;
26319;SDS011;14024;52.226;5.200;2023-07-02T00:54:31;25.83;;;8.18;;
26319;SDS011;14024;52.226;5.200;2023-07-02T00:56:57;23.65;;;7.78;;
26319;SDS011;14024;52.226;5.200;2023-07-02T00:59:29;24.38;;;8.48;;
26319;SDS011;14024;52.226;5.200;2023-07-02T01:01:55;24.50;;;8.52;;
26319;SDS011;14024;52.226;5.200;2023-07-02T01:04:21;27.45;;;8.98;;
26319;SDS011;14024;52.226;5.200;2023-07-02T01:06:52;29.70;;;9.65;;
26319;SDS011;14024;52.226;5.200;2023-07-02T01:09:23;27.92;;;8.98;;
26319;SDS011;14024;52.226;5.200;2023-07-02T01:11:55;23.60;;;8.38;;
26319;SDS011;14024;52.226;5.200;2023-07-02T01:14:25;28.77;;;8.52;;
26319;SDS011;14024;52.226;5.200;2023-07-02T01:16:52;30.00;;;8.57;;
26319;SDS011;14024;52.226;5.200;2023-07-02T01:19:19;23.90;;;9.48;;
26319;SDS011;14024;52.226;5.200;2023-07-02T01:21:47;27.63;;;8.13;;
26319;SDS011;14024;52.226;5.200;2023-07-02T01:24:14;29.77;;;10.10;;
26319;SDS011;14024;52.226;5.200;2023-07-02T01:26:41;27.05;;;9.45;;
26319;SDS011;14024;52.226;5.200;2023-07-02T01:31:39;26.13;;;8.75;;
26319;SDS011;14024;52.226;5.200;2023-07-02T01:34:05;24.58;;;8.82;;
26319;SDS011;14024;52.226;5.200;2023-07-02T01:36:33;31.40;;;9.18;;
26319;SDS011;14024;52.226;5.200;2023-07-02T01:38:59;28.25;;;8.82;;
26319;SDS011;14024;52.226;5.200;2023-07-02T01:41:25;25.88;;;8.80;;
26319;SDS011;14024;52.226;5.200;2023-07-02T01:43:51;30.67;;;9.43;;
26319;SDS011;14024;52.226;5.200;2023-07-02T01:46:17;21.83;;;8.88;;
26319;SDS011;14024;52.226;5.200;2023-07-02T01:48:43;31.75;;;9.43;;
26319;SDS011;14024;52.226;5.200;2023-07-02T01:51:09;28.05;;;8.75;;
26319;SDS011;14024;52.226;5.200;2023-07-02T01:53:35;33.50;;;9.82;;
26319;SDS011;14024;52.226;5.200;2023-07-02T01:56:01;28.08;;;9.02;;
26319;SDS011;14024;52.226;5.200;2023-07-02T01:58:28;29.98;;;9.63;;
26319;SDS011;14024;52.226;5.200;2023-07-02T02:00:54;32.53;;;8.60;;
26319;SDS011;14024;52.226;5.200;2023-07-02T02:03:20;23.90;;;9.13;;
26319;SDS011;14024;52.226;5.200;2023-07-02T02:05:46;25.52;;;8.27;;
26319;SDS011;14024;52.226;5.200;2023-07-02T02:08:12;29.48;;;9.35;;
26319;SDS011;14024;52.226;5.200;2023-07-02T02:10:38;22.95;;;8.52;;
26319;SDS011;14024;52.226;5.200;2023-07-02T02:13:04;31.27;;;9.52;;
26319;SDS011;14024;52.226;5.200;2023-07-02T02:15:30;25.77;;;8.38;;
26319;SDS011;14024;52.226;5.200;2023-07-02T02:17:56;27.42;;;8.73;;
26319;SDS011;14024;52.226;5.200;2023-07-02T02:20:22;33.97;;;9.10;;
26319;SDS011;14024;52.226;5.200;2023-07-02T02:22:48;27.85;;;9.73;;
26319;SDS011;14024;52.226;5.200;2023-07-02T02:25:14;26.05;;;8.75;;
26319;SDS011;14024;52.226;5.200;2023-07-02T02:27:40;22.23;;;7.45;;
26319;SDS011;14024;52.226;5.200;2023-07-02T02:30:08;30.27;;;8.60;;
26319;SDS011;14024;52.226;5.200;2023-07-02T02:32:34;26.45;;;8.15;;
26319;SDS011;14024;52.226;5.200;2023-07-02T02:35:00;32.83;;;8.73;;
26319;SDS011;14024;52.226;5.200;2023-07-02T02:37:27;24.23;;;8.55;;
26319;SDS011;14024;52.226;5.200;2023-07-02T02:39:55;30.00;;;8.95;;
26319;SDS011;14024;52.226;5.200;2023-07-02T02:42:22;32.00;;;8.68;;
26319;SDS011;14024;52.226;5.200;2023-07-02T02:44:48;28.35;;;9.57;;
26319;SDS011;14024;52.226;5.200;2023-07-02T02:47:14;28.13;;;8.98;;
26319;SDS011;14024;52.226;5.200;2023-07-02T02:49:40;32.70;;;8.07;;
26319;SDS011;14024;52.226;5.200;2023-07-02T02:52:06;31.40;;;9.48;;
26319;SDS011;14024;52.226;5.200;2023-07-02T02:54:32;30.08;;;9.88;;
26319;SDS011;14024;52.226;5.200;2023-07-02T02:56:59;27.10;;;9.07;;
26319;SDS011;14024;52.226;5.200;2023-07-02T02:59:25;29.23;;;9.18;;
26319;SDS011;14024;52.226;5.200;2023-07-02T03:01:51;21.15;;;8.93;;
26319;SDS011;14024;52.226;5.200;2023-07-02T03:04:17;26.35;;;9.50;;
26319;SDS011;14024;52.226;5.200;2023-07-02T03:06:43;27.65;;;9.23;;
26319;SDS011;14024;52.226;5.200;2023-07-02T03:09:08;25.17;;;9.07;;
26319;SDS011;14024;52.226;5.200;2023-07-02T03:11:36;26.58;;;8.77;;
26319;SDS011;14024;52.226;5.200;2023-07-02T03:14:02;29.73;;;9.30;;
26319;SDS011;14024;52.226;5.200;2023-07-02T03:16:28;24.33;;;8.48;;
26319;SDS011;14024;52.226;5.200;2023-07-02T03:18:54;31.75;;;8.68;;
26319;SDS011;14024;52.226;5.200;2023-07-02T03:21:21;24.63;;;8.70;;
26319;SDS011;14024;52.226;5.200;2023-07-02T03:23:47;31.05;;;9.20;;
26319;SDS011;14024;52.226;5.200;2023-07-02T03:26:13;35.38;;;9.35;;
26319;SDS011;14024;52.226;5.200;2023-07-02T03:28:39;32.88;;;9.70;;
26319;SDS011;14024;52.226;5.200;2023-07-02T03:31:05;27.17;;;9.95;;
26319;SDS011;14024;52.226;5.200;2023-07-02T03:33:32;31.13;;;9.25;;
26319;SDS011;14024;52.226;5.200;2023-07-02T03:35:58;29.52;;;10.40;;
26319;SDS011;14024;52.226;5.200;2023-07-02T03:38:24;29.33;;;8.80;;
26319;SDS011;14024;52.226;5.200;2023-07-02T03:40:50;24.95;;;10.82;;
26319;SDS011;14024;52.226;5.200;2023-07-02T03:43:16;28.05;;;10.18;;
26319;SDS011;14024;52.226;5.200;2023-07-02T03:45:42;23.67;;;9.32;;
26319;SDS011;14024;52.226;5.200;2023-07-02T03:48:08;29.58;;;9.35;;
26319;SDS011;14024;52.226;5.200;2023-07-02T03:50:34;31.95;;;9.18;;
26319;SDS011;14024;52.226;5.200;2023-07-02T03:53:00;36.55;;;9.85;;
26319;SDS011;14024;52.226;5.200;2023-07-02T03:55:26;30.38;;;9.50;;
26319;SDS011;14024;52.226;5.200;2023-07-02T03:57:52;34.30;;;9.80;;
26319;SDS011;14024;52.226;5.200;2023-07-02T04:00:18;31.08;;;9.50;;
26319;SDS011;14024;52.226;5.200;2023-07-02T04:02:45;36.38;;;10.05;;
26319;SDS011;14024;52.226;5.200;2023-07-02T04:05:11;25.63;;;8.80;;
26319;SDS011;14024;52.226;5.200;2023-07-02T04:07:37;32.20;;;8.98;;
26319;SDS011;14024;52.226;5.200;2023-07-02T04:10:03;37.17;;;10.48;;
26319;SDS011;14024;52.226;5.200;2023-07-02T04:12:30;29.25;;;9.52;;
26319;SDS011;14024;52.226;5.200;2023-07-02T04:14:56;29.15;;;10.23;;
26319;SDS011;14024;52.226;5.200;2023-07-02T04:17:22;34.00;;;9.55;;
26319;SDS011;14024;52.226;5.200;2023-07-02T04:19:48;34.25;;;9.95;;
26319;SDS011;14024;52.226;5.200;2023-07-02T04:22:14;30.70;;;10.70;;
26319;SDS011;14024;52.226;5.200;2023-07-02T04:24:40;36.22;;;9.55;;
26319;SDS011;14024;52.226;5.200;2023-07-02T04:27:06;30.55;;;10.13;;
26319;SDS011;14024;52.226;5.200;2023-07-02T04:29:32;32.75;;;8.55;;
26319;SDS011;14024;52.226;5.200;2023-07-02T04:31:58;35.55;;;9.82;;
26319;SDS011;14024;52.226;5.200;2023-07-02T04:34:24;31.55;;;9.30;;
26319;SDS011;14024;52.226;5.200;2023-07-02T04:36:50;28.52;;;10.52;;
26319;SDS011;14024;52.226;5.200;2023-07-02T04:39:16;38.90;;;10.60;;
26319;SDS011;14024;52.226;5.200;2023-07-02T04:41:42;34.60;;;10.70;;
26319;SDS011;14024;52.226;5.200;2023-07-02T04:44:09;30.35;;;9.23;;
26319;SDS011;14024;52.226;5.200;2023-07-02T04:46:35;28.85;;;9.02;;
26319;SDS011;14024;52.226;5.200;2023-07-02T04:49:01;24.70;;;10.40;;
26319;SDS011;14024;52.226;5.200;2023-07-02T04:51:27;35.25;;;9.57;;
26319;SDS011;14024;52.226;5.200;2023-07-02T04:53:53;28.58;;;9.43;;
26319;SDS011;14024;52.226;5.200;2023-07-02T04:56:20;33.65;;;10.20;;
26319;SDS011;14024;52.226;5.200;2023-07-02T04:58:46;29.70;;;9.52;;
26319;SDS011;14024;52.226;5.200;2023-07-02T05:01:12;31.45;;;9.18;;
26319;SDS011;14024;52.226;5.200;2023-07-02T05:03:38;32.55;;;8.75;;
26319;SDS011;14024;52.226;5.200;2023-07-02T05:06:05;30.83;;;9.00;;
26319;SDS011;14024;52.226;5.200;2023-07-02T05:08:31;27.48;;;9.40;;
26319;SDS011;14024;52.226;5.200;2023-07-02T05:10:57;31.52;;;9.50;;
26319;SDS011;14024;52.226;5.200;2023-07-02T05:13:23;27.00;;;9.63;;
26319;SDS011;14024;52.226;5.200;2023-07-02T05:15:49;27.38;;;8.82;;
26319;SDS011;14024;52.226;5.200;2023-07-02T05:18:16;33.17;;;8.20;;
26319;SDS011;14024;52.226;5.200;2023-07-02T05:20:42;26.02;;;9.25;;
26319;SDS011;14024;52.226;5.200;2023-07-02T05:23:08;24.27;;;7.65;;
26319;SDS011;14024;52.226;5.200;2023-07-02T05:25:35;28.48;;;8.30;;
26319;SDS011;14024;52.226;5.200;2023-07-02T05:28:01;30.80;;;8.55;;
26319;SDS011;14024;52.226;5.200;2023-07-02T05:30:27;28.23;;;7.72;;
26319;SDS011;14024;52.226;5.200;2023-07-02T05:32:53;30.55;;;8.10;;
26319;SDS011;14024;52.226;5.200;2023-07-02T05:35:19;22.48;;;8.35;;
26319;SDS011;14024;52.226;5.200;2023-07-02T05:37:44;30.80;;;8.77;;
26319;SDS011;14024;52.226;5.200;2023-07-02T05:40:11;25.35;;;8.73;;
26319;SDS011;14024;52.226;5.200;2023-07-02T05:42:37;27.30;;;7.38;;
26319;SDS011;14024;52.226;5.200;2023-07-02T05:45:03;20.55;;;7.20;;
26319;SDS011;14024;52.226;5.200;2023-07-02T05:47:29;38.25;;;8.55;;
26319;SDS011;14024;52.226;5.200;2023-07-02T05:49:55;22.40;;;7.93;;
26319;SDS011;14024;52.226;5.200;2023-07-02T05:52:21;22.77;;;7.35;;
26319;SDS011;14024;52.226;5.200;2023-07-02T05:54:47;34.88;;;8.40;;
26319;SDS011;14024;52.226;5.200;2023-07-02T05:57:13;25.75;;;7.35;;
26319;SDS011;14024;52.226;5.200;2023-07-02T05:59:39;24.60;;;8.32;;
26319;SDS011;14024;52.226;5.200;2023-07-02T06:02:05;30.77;;;9.30;;
26319;SDS011;14024;52.226;5.200;2023-07-02T06:04:31;22.80;;;7.43;;
26319;SDS011;14024;52.226;5.200;2023-07-02T06:06:57;25.67;;;7.43;;
26319;SDS011;14024;52.226;5.200;2023-07-02T06:09:23;24.30;;;6.97;;
26319;SDS011;14024;52.226;5.200;2023-07-02T06:11:49;31.77;;;7.00;;
26319;SDS011;14024;52.226;5.200;2023-07-02T06:14:16;21.15;;;7.20;;
26319;SDS011;14024;52.226;5.200;2023-07-02T06:16:43;24.17;;;6.78;;
26319;SDS011;14024;52.226;5.200;2023-07-02T06:19:09;27.27;;;8.13;;
26319;SDS011;14024;52.226;5.200;2023-07-02T06:21:36;22.27;;;7.80;;
26319;SDS011;14024;52.226;5.200;2023-07-02T06:24:02;27.02;;;7.43;;
26319;SDS011;14024;52.226;5.200;2023-07-02T06:26:28;28.35;;;7.93;;
26319;SDS011;14024;52.226;5.200;2023-07-02T06:28:54;25.42;;;7.72;;
26319;SDS011;14024;52.226;5.200;2023-07-02T06:31:21;20.92;;;7.25;;
26319;SDS011;14024;52.226;5.200;2023-07-02T06:33:48;23.48;;;7.85;;
26319;SDS011;14024;52.226;5.200;2023-07-02T06:36:14;26.27;;;7.38;;
26319;SDS011;14024;52.226;5.200;2023-07-02T06:38:40;27.05;;;7.50;;
26319;SDS011;14024;52.226;5.200;2023-07-02T06:41:06;24.65;;;7.32;;
26319;SDS011;14024;52.226;5.200;2023-07-02T06:43:32;25.05;;;7.28;;
26319;SDS011;14024;52.226;5.200;2023-07-02T06:45:58;22.23;;;6.97;;
26319;SDS011;14024;52.226;5.200;2023-07-02T06:48:24;21.40;;;7.20;;
26319;SDS011;14024;52.226;5.200;2023-07-02T06:50:50;28.58;;;7.32;;
26319;SDS011;14024;52.226;5.200;2023-07-02T06:53:16;20.50;;;6.53;;
26319;SDS011;14024;52.226;5.200;2023-07-02T06:55:42;23.23;;;6.90;;
26319;SDS011;14024;52.226;5.200;2023-07-02T06:58:09;17.67;;;7.50;;
26319;SDS011;14024;52.226;5.200;2023-07-02T07:00:36;17.33;;;6.78;;
26319;SDS011;14024;52.226;5.200;2023-07-02T07:03:02;18.55;;;6.65;;
26319;SDS011;14024;52.226;5.200;2023-07-02T07:05:31;19.75;;;6.57;;
26319;SDS011;14024;52.226;5.200;2023-07-02T07:07:58;25.00;;;6.53;;
26319;SDS011;14024;52.226;5.200;2023-07-02T07:10:26;17.23;;;6.10;;
26319;SDS011;14024;52.226;5.200;2023-07-02T07:12:52;20.60;;;6.47;;
26319;SDS011;14024;52.226;5.200;2023-07-02T07:15:18;22.55;;;6.60;;
26319;SDS011;14024;52.226;5.200;2023-07-02T07:17:44;16.38;;;6.18;;
26319;SDS011;14024;52.226;5.200;2023-07-02T07:20:10;24.02;;;6.75;;
26319;SDS011;14024;52.226;5.200;2023-07-02T07:22:37;16.92;;;5.70;;
26319;SDS011;14024;52.226;5.200;2023-07-02T07:25:03;15.80;;;6.50;;
26319;SDS011;14024;52.226;5.200;2023-07-02T07:27:30;20.38;;;6.53;;
26319;SDS011;14024;52.226;5.200;2023-07-02T07:29:56;17.90;;;5.80;;
26319;SDS011;14024;52.226;5.200;2023-07-02T07:32:22;15.75;;;5.63;;
26319;SDS011;14024;52.226;5.200;2023-07-02T07:34:48;14.07;;;5.47;;
26319;SDS011;14024;52.226;5.200;2023-07-02T07:37:14;26.70;;;6.93;;
26319;SDS011;14024;52.226;5.200;2023-07-02T07:39:40;18.85;;;6.00;;
26319;SDS011;14024;52.226;5.200;2023-07-02T07:42:06;20.58;;;6.13;;
26319;SDS011;14024;52.226;5.200;2023-07-02T07:44:32;18.92;;;5.70;;
26319;SDS011;14024;52.226;5.200;2023-07-02T07:46:58;18.52;;;5.95;;
26319;SDS011;14024;52.226;5.200;2023-07-02T07:49:24;15.52;;;6.15;;
26319;SDS011;14024;52.226;5.200;2023-07-02T07:51:50;21.10;;;6.70;;
26319;SDS011;14024;52.226;5.200;2023-07-02T07:54:17;16.52;;;6.40;;
26319;SDS011;14024;52.226;5.200;2023-07-02T07:56:43;18.70;;;6.68;;
26319;SDS011;14024;52.226;5.200;2023-07-02T07:59:09;24.02;;;7.20;;
26319;SDS011;14024;52.226;5.200;2023-07-02T08:01:38;32.58;;;7.15;;
26319;SDS011;14024;52.226;5.200;2023-07-02T08:04:04;19.00;;;6.82;;
26319;SDS011;14024;52.226;5.200;2023-07-02T08:06:30;22.35;;;6.53;;
26319;SDS011;14024;52.226;5.200;2023-07-02T08:08:56;18.13;;;7.10;;
26319;SDS011;14024;52.226;5.200;2023-07-02T08:11:22;19.83;;;7.20;;
26319;SDS011;14024;52.226;5.200;2023-07-02T08:13:48;23.50;;;7.28;;
26319;SDS011;14024;52.226;5.200;2023-07-02T08:16:14;22.73;;;7.40;;
26319;SDS011;14024;52.226;5.200;2023-07-02T08:18:40;21.35;;;7.57;;
26319;SDS011;14024;52.226;5.200;2023-07-02T08:21:06;25.02;;;7.13;;
26319;SDS011;14024;52.226;5.200;2023-07-02T08:23:33;20.85;;;6.93;;
26319;SDS011;14024;52.226;5.200;2023-07-02T08:25:59;18.35;;;6.63;;
26319;SDS011;14024;52.226;5.200;2023-07-02T08:28:25;25.63;;;6.93;;
26319;SDS011;14024;52.226;5.200;2023-07-02T08:30:51;24.23;;;7.07;;
26319;SDS011;14024;52.226;5.200;2023-07-02T08:33:17;17.73;;;6.40;;
26319;SDS011;14024;52.226;5.200;2023-07-02T08:35:43;22.42;;;7.15;;
26319;SDS011;14024;52.226;5.200;2023-07-02T08:38:09;18.08;;;6.18;;
26319;SDS011;14024;52.226;5.200;2023-07-02T08:40:35;17.67;;;6.57;;
26319;SDS011;14024;52.226;5.200;2023-07-02T08:43:01;19.85;;;7.38;;
26319;SDS011;14024;52.226;5.200;2023-07-02T08:45:27;17.42;;;6.78;;
26319;SDS011;14024;52.226;5.200;2023-07-02T08:47:53;16.40;;;7.03;;
26319;SDS011;14024;52.226;5.200;2023-07-02T08:50:21;27.55;;;7.15;;
26319;SDS011;14024;52.226;5.200;2023-07-02T08:52:48;27.42;;;6.82;;
26319;SDS011;14024;52.226;5.200;2023-07-02T08:55:14;21.27;;;7.40;;
26319;SDS011;14024;52.226;5.200;2023-07-02T08:57:46;14.85;;;5.57;;
26319;SDS011;14024;52.226;5.200;2023-07-02T09:00:14;19.77;;;6.40;;
26319;SDS011;14024;52.226;5.200;2023-07-02T09:02:40;21.08;;;5.93;;
26319;SDS011;14024;52.226;5.200;2023-07-02T09:05:06;19.33;;;5.95;;
26319;SDS011;14024;52.226;5.200;2023-07-02T09:07:42;14.45;;;5.60;;
26319;SDS011;14024;52.226;5.200;2023-07-02T09:10:09;17.20;;;6.15;;
26319;SDS011;14024;52.226;5.200;2023-07-02T09:12:35;14.60;;;5.75;;
26319;SDS011;14024;52.226;5.200;2023-07-02T09:15:04;17.08;;;5.78;;
26319;SDS011;14024;52.226;5.200;2023-07-02T09:17:37;17.88;;;5.65;;
26319;SDS011;14024;52.226;5.200;2023-07-02T09:20:04;13.55;;;5.25;;
26319;SDS011;14024;52.226;5.200;2023-07-02T09:22:33;11.65;;;4.80;;
26319;SDS011;14024;52.226;5.200;2023-07-02T09:24:59;19.73;;;5.03;;
26319;SDS011;14024;52.226;5.200;2023-07-02T09:27:35;21.02;;;5.40;;
26319;SDS011;14024;52.226;5.200;2023-07-02T09:30:08;19.27;;;5.40;;
26319;SDS011;14024;52.226;5.200;2023-07-02T09:32:35;19.92;;;5.13;;
26319;SDS011;14024;52.226;5.200;2023-07-02T09:35:01;10.05;;;4.45;;
26319;SDS011;14024;52.226;5.200;2023-07-02T09:37:27;11.90;;;4.82;;
26319;SDS011;14024;52.226;5.200;2023-07-02T09:39:54;14.20;;;4.90;;
26319;SDS011;14024;52.226;5.200;2023-07-02T09:42:21;14.95;;;4.53;;
26319;SDS011;14024;52.226;5.200;2023-07-02T09:44:47;10.77;;;4.53;;
26319;SDS011;14024;52.226;5.200;2023-07-02T09:47:14;13.57;;;4.90;;
26319;SDS011;14024;52.226;5.200;2023-07-02T09:49:45;13.88;;;4.28;;
26319;SDS011;14024;52.226;5.200;2023-07-02T09:52:14;18.58;;;5.30;;
26319;SDS011;14024;52.226;5.200;2023-07-02T09:54:41;15.25;;;5.25;;
26319;SDS011;14024;52.226;5.200;2023-07-02T09:57:07;11.52;;;4.13;;
26319;SDS011;14024;52.226;5.200;2023-07-02T09:59:36;14.57;;;4.35;;
26319;SDS011;14024;52.226;5.200;2023-07-02T10:02:02;15.95;;;4.60;;
26319;SDS011;14024;52.226;5.200;2023-07-02T10:04:38;14.73;;;4.30;;
26319;SDS011;14024;52.226;5.200;2023-07-02T10:07:05;11.93;;;4.07;;
26319;SDS011;14024;52.226;5.200;2023-07-02T10:12:01;10.82;;;4.50;;
26319;SDS011;14024;52.226;5.200;2023-07-02T10:14:27;13.30;;;4.25;;
26319;SDS011;14024;52.226;5.200;2023-07-02T10:17:05;16.15;;;4.80;;
26319;SDS011;14024;52.226;5.200;2023-07-02T10:19:31;12.75;;;4.85;;
26319;SDS011;14024;52.226;5.200;2023-07-02T10:22:01;13.88;;;4.35;;
26319;SDS011;14024;52.226;5.200;2023-07-02T10:24:27;12.27;;;4.72;;
26319;SDS011;14024;52.226;5.200;2023-07-02T10:26:54;19.80;;;4.85;;
26319;SDS011;14024;52.226;5.200;2023-07-02T10:29:22;14.60;;;5.00;;
26319;SDS011;14024;52.226;5.200;2023-07-02T10:31:49;14.95;;;4.90;;
26319;SDS011;14024;52.226;5.200;2023-07-02T10:34:15;10.65;;;3.65;;
26319;SDS011;14024;52.226;5.200;2023-07-02T10:36:43;12.52;;;3.83;;
26319;SDS011;14024;52.226;5.200;2023-07-02T10:39:10;9.68;;;4.07;;
26319;SDS011;14024;52.226;5.200;2023-07-02T10:41:36;12.13;;;3.92;;
26319;SDS011;14024;52.226;5.200;2023-07-02T10:44:06;15.63;;;4.40;;
26319;SDS011;14024;52.226;5.200;2023-07-02T10:46:33;11.85;;;3.97;;
26319;SDS011;14024;52.226;5.200;2023-07-02T10:48:59;11.88;;;4.07;;
26319;SDS011;14024;52.226;5.200;2023-07-02T10:51:25;11.65;;;4.18;;
26319;SDS011;14024;52.226;5.200;2023-07-02T10:53:57;11.55;;;4.30;;
26319;SDS011;14024;52.226;5.200;2023-07-02T10:56:24;12.57;;;4.50;;
26319;SDS011;14024;52.226;5.200;2023-07-02T10:58:51;10.52;;;5.00;;
26319;SDS011;14024;52.226;5.200;2023-07-02T11:04:00;13.20;;;4.35;;
26319;SDS011;14024;52.226;5.200;2023-07-02T11:06:27;11.40;;;4.90;;
26319;SDS011;14024;52.226;5.200;2023-07-02T11:08:54;12.38;;;4.30;;
26319;SDS011;14024;52.226;5.200;2023-07-02T11:11:20;10.00;;;4.57;;
26319;SDS011;14024;52.226;5.200;2023-07-02T11:13:48;13.05;;;4.20;;
26319;SDS011;14024;52.226;5.200;2023-07-02T11:16:21;9.55;;;4.60;;
26319;SDS011;14024;52.226;5.200;2023-07-02T11:18:49;9.90;;;4.50;;
26319;SDS011;14024;52.226;5.200;2023-07-02T11:21:15;12.25;;;4.18;;
26319;SDS011;14024;52.226;5.200;2023-07-02T11:23:41;10.70;;;4.85;;
26319;SDS011;14024;52.226;5.200;2023-07-02T11:26:07;11.30;;;4.60;;
26319;SDS011;14024;52.226;5.200;2023-07-02T11:28:33;12.35;;;5.68;;
26319;SDS011;14024;52.226;5.200;2023-07-02T11:31:00;15.85;;;4.95;;
26319;SDS011;14024;52.226;5.200;2023-07-02T11:33:37;11.20;;;5.05;;
26319;SDS011;14024;52.226;5.200;2023-07-02T11:36:06;12.07;;;5.10;;
26319;SDS011;14024;52.226;5.200;2023-07-02T11:38:33;12.30;;;4.55;;
26319;SDS011;14024;52.226;5.200;2023-07-02T11:41:02;10.57;;;5.07;;
26319;SDS011;14024;52.226;5.200;2023-07-02T11:43:28;11.23;;;4.78;;
26319;SDS011;14024;52.226;5.200;2023-07-02T11:45:54;12.73;;;4.75;;
26319;SDS011;14024;52.226;5.200;2023-07-02T11:48:20;18.42;;;6.47;;
26319;SDS011;14024;52.226;5.200;2023-07-02T11:50:46;14.40;;;4.85;;
26319;SDS011;14024;52.226;5.200;2023-07-02T11:53:12;11.55;;;4.95;;
26319;SDS011;14024;52.226;5.200;2023-07-02T11:55:38;9.95;;;4.60;;
26319;SDS011;14024;52.226;5.200;2023-07-02T11:58:05;12.73;;;4.60;;
26319;SDS011;14024;52.226;5.200;2023-07-02T12:00:31;9.63;;;4.97;;
26319;SDS011;14024;52.226;5.200;2023-07-02T12:02:57;16.95;;;4.50;;
26319;SDS011;14024;52.226;5.200;2023-07-02T12:05:23;10.73;;;4.05;;
26319;SDS011;14024;52.226;5.200;2023-07-02T12:07:49;11.30;;;4.70;;
26319;SDS011;14024;52.226;5.200;2023-07-02T12:10:16;11.43;;;4.35;;
26319;SDS011;14024;52.226;5.200;2023-07-02T12:12:42;11.25;;;4.13;;
26319;SDS011;14024;52.226;5.200;2023-07-02T12:15:08;12.48;;;4.07;;
26319;SDS011;14024;52.226;5.200;2023-07-02T12:17:34;16.52;;;5.20;;
26319;SDS011;14024;52.226;5.200;2023-07-02T12:20:00;12.30;;;4.40;;
26319;SDS011;14024;52.226;5.200;2023-07-02T12:22:26;11.48;;;4.38;;
26319;SDS011;14024;52.226;5.200;2023-07-02T12:24:52;14.85;;;4.43;;
26319;SDS011;14024;52.226;5.200;2023-07-02T12:27:21;10.70;;;4.38;;
26319;SDS011;14024;52.226;5.200;2023-07-02T12:29:47;11.98;;;5.07;;
26319;SDS011;14024;52.226;5.200;2023-07-02T12:32:13;9.77;;;4.47;;
26319;SDS011;14024;52.226;5.200;2023-07-02T12:34:39;8.10;;;4.28;;
26319;SDS011;14024;52.226;5.200;2023-07-02T12:37:05;13.00;;;4.07;;
26319;SDS011;14024;52.226;5.200;2023-07-02T12:39:31;10.10;;;4.30;;
26319;SDS011;14024;52.226;5.200;2023-07-02T12:41:57;10.02;;;5.13;;
26319;SDS011;14024;52.226;5.200;2023-07-02T12:44:23;10.02;;;3.88;;
26319;SDS011;14024;52.226;5.200;2023-07-02T12:46:49;15.88;;;4.47;;
26319;SDS011;14024;52.226;5.200;2023-07-02T12:49:15;12.10;;;4.63;;
26319;SDS011;14024;52.226;5.200;2023-07-02T12:51:41;17.25;;;4.22;;
26319;SDS011;14024;52.226;5.200;2023-07-02T12:54:07;10.48;;;4.25;;
26319;SDS011;14024;52.226;5.200;2023-07-02T12:56:33;9.18;;;4.32;;
26319;SDS011;14024;52.226;5.200;2023-07-02T12:59:01;10.27;;;4.18;;
26319;SDS011;14024;52.226;5.200;2023-07-02T13:01:28;12.48;;;4.97;;
26319;SDS011;14024;52.226;5.200;2023-07-02T13:03:54;13.93;;;5.30;;
26319;SDS011;14024;52.226;5.200;2023-07-02T13:06:20;14.43;;;4.78;;
26319;SDS011;14024;52.226;5.200;2023-07-02T13:08:46;14.07;;;4.63;;
26319;SDS011;14024;52.226;5.200;2023-07-02T13:11:12;12.15;;;4.63;;
26319;SDS011;14024;52.226;5.200;2023-07-02T13:13:40;14.23;;;5.47;;
26319;SDS011;14024;52.226;5.200;2023-07-02T13:16:06;14.85;;;5.28;;
26319;SDS011;14024;52.226;5.200;2023-07-02T13:18:33;15.52;;;5.28;;
26319;SDS011;14024;52.226;5.200;2023-07-02T13:20:59;14.45;;;5.28;;
26319;SDS011;14024;52.226;5.200;2023-07-02T13:23:24;12.40;;;4.70;;
26319;SDS011;14024;52.226;5.200;2023-07-02T13:25:50;11.93;;;5.65;;
26319;SDS011;14024;52.226;5.200;2023-07-02T13:28:16;11.80;;;4.97;;
26319;SDS011;14024;52.226;5.200;2023-07-02T13:30:42;15.15;;;5.40;;
26319;SDS011;14024;52.226;5.200;2023-07-02T13:33:08;13.00;;;4.97;;
26319;SDS011;14024;52.226;5.200;2023-07-02T13:35:34;16.92;;;5.88;;
26319;SDS011;14024;52.226;5.200;2023-07-02T13:38:02;20.13;;;6.22;;
26319;SDS011;14024;52.226;5.200;2023-07-02T13:40:29;10.73;;;5.22;;
26319;SDS011;14024;52.226;5.200;2023-07-02T13:42:55;16.70;;;5.72;;
26319;SDS011;14024;52.226;5.200;2023-07-02T13:45:21;14.18;;;6.10;;
26319;SDS011;14024;52.226;5.200;2023-07-02T13:47:47;14.27;;;5.60;;
26319;SDS011;14024;52.226;5.200;2023-07-02T13:50:13;11.68;;;5.30;;
26319;SDS011;14024;52.226;5.200;2023-07-02T13:52:39;13.23;;;5.50;;
26319;SDS011;14024;52.226;5.200;2023-07-02T13:55:07;15.23;;;5.97;;
26319;SDS011;14024;52.226;5.200;2023-07-02T13:57:33;15.02;;;5.68;;
26319;SDS011;14024;52.226;5.200;2023-07-02T13:59:59;13.55;;;6.13;;
26319;SDS011;14024;52.226;5.200;2023-07-02T14:02:25;11.00;;;5.57;;
26319;SDS011;14024;52.226;5.200;2023-07-02T14:04:53;13.05;;;5.35;;
26319;SDS011;14024;52.226;5.200;2023-07-02T14:07:19;13.93;;;5.80;;
26319;SDS011;14024;52.226;5.200;2023-07-02T14:09:45;14.20;;;5.50;;
26319;SDS011;14024;52.226;5.200;2023-07-02T14:12:11;13.85;;;5.25;;
26319;SDS011;14024;52.226;5.200;2023-07-02T14:14:37;14.50;;;5.60;;
26319;SDS011;14024;52.226;5.200;2023-07-02T14:17:03;10.75;;;5.88;;
26319;SDS011;14024;52.226;5.200;2023-07-02T14:19:29;13.30;;;5.05;;
26319;SDS011;14024;52.226;5.200;2023-07-02T14:21:55;13.02;;;5.75;;
26319;SDS011;14024;52.226;5.200;2023-07-02T14:24:21;18.60;;;4.60;;
26319;SDS011;14024;52.226;5.200;2023-07-02T14:26:47;11.75;;;5.22;;
26319;SDS011;14024;52.226;5.200;2023-07-02T14:29:13;13.15;;;4.82;;
26319;SDS011;14024;52.226;5.200;2023-07-02T14:31:39;15.20;;;5.10;;
26319;SDS011;14024;52.226;5.200;2023-07-02T14:34:05;14.20;;;5.68;;
26319;SDS011;14024;52.226;5.200;2023-07-02T14:36:31;8.40;;;4.43;;